Time;durP1;ratioP1;P1;durP2;ratioP2;P2;SDS_P1;SDS_P2;PMS_P1;PMS_P2;Temp;Humidity;BMP_temperature;BMP_pressure;BME280_temperature;BME280_humidity;BME280_pressure;Samples;Min_cycle;Max_cycle;Signal;HPM_P1;HPM_P2
2023/08/03 00:02:09;;;;;;;3.95;1.88;;;;;;;;;;5071878;28;20032;-68
2023/08/03 00:04:34;;;;;;;8.90;1.80;;;;;;;;;;5074123;28;20017;-69
2023/08/03 00:06:59;;;;;;;3.25;2.47;;;;;;;;;;5068360;28;20029;-68
2023/08/03 00:09:25;;;;;;;9.48;3.80;;;;;;;;;;5051995;28;20055;-69
2023/08/03 00:11:50;;;;;;;10.07;2.20;;;;;;;;;;5061264;28;20047;-69
2023/08/03 00:14:15;;;;;;;10.70;4.30;;;;;;;;;;5073669;28;20035;-70
2023/08/03 00:16:40;;;;;;;6.77;3.40;;;;;;;;;;5071979;28;20043;-69
2023/08/03 00:19:05;;;;;;;3.70;2.13;;;;;;;;;;5072886;28;20039;-70
2023/08/03 00:21:30;;;;;;;9.55;2.58;;;;;;;;;;5071930;28;20033;-70
2023/08/03 00:23:55;;;;;;;5.43;2.80;;;;;;;;;;5073565;28;20582;-70
2023/08/03 00:26:21;;;;;;;7.95;2.97;;;;;;;;;;5071291;28;20446;-70
2023/08/03 00:28:46;;;;;;;4.47;2.30;;;;;;;;;;5073550;28;20013;-69
2023/08/03 00:31:11;;;;;;;6.18;2.85;;;;;;;;;;5070504;28;20052;-70
2023/08/03 00:33:36;;;;;;;5.22;2.45;;;;;;;;;;5073015;28;20012;-69
2023/08/03 00:36:01;;;;;;;3.07;2.80;;;;;;;;;;5071361;28;20449;-69
2023/08/03 00:38:27;;;;;;;4.57;2.05;;;;;;;;;;5060296;28;20021;-68
2023/08/03 00:40:52;;;;;;;6.23;2.03;;;;;;;;;;5051236;28;20013;-69
2023/08/03 00:43:17;;;;;;;5.30;2.10;;;;;;;;;;5053010;28;20415;-69
2023/08/03 00:45:42;;;;;;;5.17;2.33;;;;;;;;;;5060580;28;20025;-69
2023/08/03 00:48:08;;;;;;;3.60;3.13;;;;;;;;;;5071036;28;20052;-70
2023/08/03 00:50:33;;;;;;;5.18;2.20;;;;;;;;;;5055967;28;20439;-69
2023/08/03 00:52:58;;;;;;;2.23;1.70;;;;;;;;;;5070027;28;20064;-69
2023/08/03 00:55:23;;;;;;;6.88;2.83;;;;;;;;;;5065516;28;20031;-70
2023/08/03 00:57:48;;;;;;;5.10;1.90;;;;;;;;;;5068713;28;20402;-70
2023/08/03 01:00:14;;;;;;;5.17;2.00;;;;;;;;;;5071118;28;20463;-69
2023/08/03 01:02:39;;;;;;;3.30;1.60;;;;;;;;;;5071242;28;20435;-68
2023/08/03 01:05:04;;;;;;;4.90;2.17;;;;;;;;;;5072051;28;20364;-68
2023/08/03 01:07:29;;;;;;;5.28;2.83;;;;;;;;;;5070723;28;20040;-71
2023/08/03 01:09:54;;;;;;;6.32;2.10;;;;;;;;;;5072298;28;20024;-70
2023/08/03 01:12:20;;;;;;;2.40;2.20;;;;;;;;;;5071186;28;20127;-70
2023/08/03 01:14:45;;;;;;;2.93;2.60;;;;;;;;;;5072344;28;20503;-69
2023/08/03 01:17:11;;;;;;;5.35;2.42;;;;;;;;;;5070348;28;20450;-69
2023/08/03 01:19:36;;;;;;;5.00;3.25;;;;;;;;;;5072694;28;20021;-68
2023/08/03 01:22:02;;;;;;;4.05;2.70;;;;;;;;;;5071122;28;20032;-69
2023/08/03 01:24:28;;;;;;;4.50;2.22;;;;;;;;;;5071442;28;20024;-74
2023/08/03 01:26:53;;;;;;;2.58;2.13;;;;;;;;;;5070821;28;20443;-69
2023/08/03 01:29:18;;;;;;;3.90;3.03;;;;;;;;;;5071899;28;20020;-69
2023/08/03 01:31:43;;;;;;;4.10;2.30;;;;;;;;;;5070298;28;20419;-69
2023/08/03 01:34:09;;;;;;;3.33;3.03;;;;;;;;;;5071724;28;20028;-68
2023/08/03 01:36:34;;;;;;;5.40;3.08;;;;;;;;;;5069853;28;20040;-68
2023/08/03 01:39:09;;;;;;;3.47;3.17;;;;;;;;;;5071944;28;20020;-68
2023/08/03 01:41:38;;;;;;;5.47;3.53;;;;;;;;;;5070803;28;20442;-68
2023/08/03 01:44:18;;;;;;;12.85;4.70;;;;;;;;;;5060982;28;20017;-69
2023/08/03 01:46:43;;;;;;;4.00;3.70;;;;;;;;;;5049910;28;20047;-70
2023/08/03 01:49:09;;;;;;;10.03;3.80;;;;;;;;;;5051526;28;20395;-69
2023/08/03 01:51:34;;;;;;;3.57;3.10;;;;;;;;;;5056244;28;20051;-70
2023/08/03 01:53:59;;;;;;;3.20;2.90;;;;;;;;;;5071642;28;20476;-69
2023/08/03 01:56:24;;;;;;;5.67;3.10;;;;;;;;;;5065504;28;21058;-69
2023/08/03 01:58:49;;;;;;;5.63;3.73;;;;;;;;;;5070445;28;20115;-70
2023/08/03 02:01:14;;;;;;;4.32;3.95;;;;;;;;;;5069237;28;20032;-69
2023/08/03 02:03:40;;;;;;;5.10;3.42;;;;;;;;;;5071585;28;20016;-70
2023/08/03 02:06:05;;;;;;;5.70;3.35;;;;;;;;;;5070345;28;20032;-69
2023/08/03 02:08:30;;;;;;;8.15;5.07;;;;;;;;;;5070633;28;20085;-69
2023/08/03 02:10:55;;;;;;;6.73;4.20;;;;;;;;;;5068647;28;20056;-69
2023/08/03 02:13:20;;;;;;;4.47;3.93;;;;;;;;;;5071240;28;20497;-69
2023/08/03 02:15:46;;;;;;;8.80;4.83;;;;;;;;;;5069742;28;20471;-69
2023/08/03 02:18:11;;;;;;;6.93;5.47;;;;;;;;;;5069742;28;20023;-71
2023/08/03 02:20:36;;;;;;;6.60;4.72;;;;;;;;;;5070897;28;20025;-70
2023/08/03 02:23:01;;;;;;;6.97;5.13;;;;;;;;;;5069412;28;20468;-70
2023/08/03 02:25:26;;;;;;;9.83;5.27;;;;;;;;;;5071059;28;20426;-71
2023/08/03 02:27:52;;;;;;;5.50;4.80;;;;;;;;;;5069420;28;20043;-70
2023/08/03 02:30:17;;;;;;;10.23;6.28;;;;;;;;;;5070443;28;20487;-70
2023/08/03 02:32:42;;;;;;;8.88;5.45;;;;;;;;;;5058822;28;20044;-69
2023/08/03 02:35:07;;;;;;;6.65;4.78;;;;;;;;;;5049658;28;20020;-69
2023/08/03 02:37:32;;;;;;;12.77;6.60;;;;;;;;;;5051939;28;20126;-70
2023/08/03 02:39:58;;;;;;;8.37;4.63;;;;;;;;;;5051065;28;20112;-69
2023/08/03 02:42:23;;;;;;;5.75;4.15;;;;;;;;;;5062986;28;20508;-71
2023/08/03 02:44:48;;;;;;;8.07;4.15;;;;;;;;;;5071211;28;20092;-71
2023/08/03 02:47:13;;;;;;;6.17;3.77;;;;;;;;;;5068806;28;20093;-71
2023/08/03 02:49:38;;;;;;;6.93;3.30;;;;;;;;;;5070942;28;20063;-69
2023/08/03 02:52:04;;;;;;;2.80;2.53;;;;;;;;;;5069257;28;20036;-70
2023/08/03 02:54:29;;;;;;;14.20;3.13;;;;;;;;;;5070258;28;20031;-71
2023/08/03 02:56:54;;;;;;;4.43;2.60;;;;;;;;;;5069540;28;20036;-71
2023/08/03 02:59:19;;;;;;;5.10;2.97;;;;;;;;;;5069721;28;20516;-70
2023/08/03 03:01:45;;;;;;;8.10;3.53;;;;;;;;;;5067603;28;20037;-70
2023/08/03 03:04:10;;;;;;;5.43;4.90;;;;;;;;;;5050825;28;20469;-70
2023/08/03 03:06:38;;;;;;;5.93;5.32;;;;;;;;;;5050329;28;20120;-70
2023/08/03 03:09:03;;;;;;;8.60;5.40;;;;;;;;;;5050271;28;20639;-71
2023/08/03 03:11:28;;;;;;;7.90;5.63;;;;;;;;;;5049003;28;20041;-70
2023/08/03 03:13:53;;;;;;;9.13;7.13;;;;;;;;;;5049345;28;20021;-70
2023/08/03 03:16:25;;;;;;;11.40;7.33;;;;;;;;;;5048694;28;20044;-69
2023/08/03 03:18:50;;;;;;;19.50;7.63;;;;;;;;;;5050635;28;20024;-69
2023/08/03 03:21:15;;;;;;;9.80;7.00;;;;;;;;;;5065082;28;20036;-69
2023/08/03 03:23:40;;;;;;;13.52;8.57;;;;;;;;;;5050220;28;20020;-67
2023/08/03 03:26:05;;;;;;;12.57;7.95;;;;;;;;;;5048860;28;20029;-74
2023/08/03 03:28:31;;;;;;;18.70;10.90;;;;;;;;;;5050399;28;20067;-70
2023/08/03 03:30:56;;;;;;;13.00;8.03;;;;;;;;;;5048628;28;20399;-67
2023/08/03 03:33:21;;;;;;;10.52;8.00;;;;;;;;;;5050171;28;20444;-67
2023/08/03 03:35:46;;;;;;;16.45;8.68;;;;;;;;;;5049082;28;20053;-70
2023/08/03 03:38:11;;;;;;;11.03;9.63;;;;;;;;;;5049652;28;20075;-70
2023/08/03 03:40:36;;;;;;;36.03;9.65;;;;;;;;;;5050311;28;20447;-70
2023/08/03 03:43:02;;;;;;;16.08;9.77;;;;;;;;;;5049106;28;20029;-70
2023/08/03 03:45:27;;;;;;;13.50;8.97;;;;;;;;;;5056860;28;20028;-70
2023/08/03 03:47:52;;;;;;;16.80;10.53;;;;;;;;;;5057952;28;20036;-71
2023/08/03 03:50:17;;;;;;;13.70;11.35;;;;;;;;;;5050128;28;20431;-71
2023/08/03 03:52:42;;;;;;;17.53;12.33;;;;;;;;;;5064255;28;20040;-71
2023/08/03 03:55:07;;;;;;;22.53;12.90;;;;;;;;;;5070125;28;20514;-71
2023/08/03 03:57:33;;;;;;;13.93;11.77;;;;;;;;;;5067512;28;20091;-70
2023/08/03 03:59:58;;;;;;;14.07;10.95;;;;;;;;;;5069892;28;20031;-71
2023/08/03 04:02:23;;;;;;;21.65;11.65;;;;;;;;;;5068564;28;20029;-71
2023/08/03 04:04:48;;;;;;;18.27;9.82;;;;;;;;;;5070411;28;20024;-70
2023/08/03 04:07:13;;;;;;;10.02;8.15;;;;;;;;;;5066643;28;20059;-70
2023/08/03 04:09:38;;;;;;;14.32;8.10;;;;;;;;;;5070593;28;20094;-71
2023/08/03 04:12:04;;;;;;;11.83;8.03;;;;;;;;;;5072383;28;20040;-71
2023/08/03 04:14:29;;;;;;;8.65;7.72;;;;;;;;;;5073388;28;20468;-72
2023/08/03 04:16:54;;;;;;;9.20;5.93;;;;;;;;;;5071829;28;20811;-72
2023/08/03 04:19:19;;;;;;;10.97;8.33;;;;;;;;;;5073536;28;20031;-69
2023/08/03 04:21:44;;;;;;;11.00;5.93;;;;;;;;;;5071692;28;20371;-71
2023/08/03 04:24:09;;;;;;;10.80;5.87;;;;;;;;;;5073264;28;20017;-70
2023/08/03 04:26:35;;;;;;;11.40;7.27;;;;;;;;;;5072254;28;20597;-70
2023/08/03 04:29:00;;;;;;;8.67;5.63;;;;;;;;;;5072850;28;20015;-75
2023/08/03 04:31:27;;;;;;;11.97;6.40;;;;;;;;;;5072047;28;20258;-64
2023/08/03 04:33:52;;;;;;;7.65;4.93;;;;;;;;;;5069543;28;21003;-65
2023/08/03 04:36:17;;;;;;;6.23;5.20;;;;;;;;;;5068053;28;20041;-66
2023/08/03 04:38:42;;;;;;;11.88;8.10;;;;;;;;;;5073497;28;20426;-67
2023/08/03 04:41:07;;;;;;;7.85;5.35;;;;;;;;;;5070269;28;20449;-67
2023/08/03 04:43:33;;;;;;;8.77;4.47;;;;;;;;;;5040680;28;20022;-67
2023/08/03 04:45:58;;;;;;;18.37;4.30;;;;;;;;;;5033631;28;20021;-66
2023/08/03 04:48:23;;;;;;;7.05;4.10;;;;;;;;;;5052857;28;20419;-67
2023/08/03 04:50:48;;;;;;;6.23;4.33;;;;;;;;;;5062502;28;20025;-67
2023/08/03 04:53:13;;;;;;;9.67;5.00;;;;;;;;;;5071677;28;20465;-68
2023/08/03 04:55:40;;;;;;;5.23;4.30;;;;;;;;;;5072178;28;20446;-68
2023/08/03 04:58:05;;;;;;;10.55;4.65;;;;;;;;;;5050333;28;20407;-69
2023/08/03 05:00:30;;;;;;;5.38;4.63;;;;;;;;;;5052076;28;20028;-67
2023/08/03 05:02:55;;;;;;;9.40;5.30;;;;;;;;;;5065435;28;20029;-67
2023/08/03 05:05:20;;;;;;;9.82;6.55;;;;;;;;;;5065576;28;20021;-68
2023/08/03 05:07:46;;;;;;;8.47;6.07;;;;;;;;;;5067866;28;20124;-68
2023/08/03 05:10:11;;;;;;;8.20;4.70;;;;;;;;;;5069218;28;20021;-69
2023/08/03 05:12:38;;;;;;;9.65;4.40;;;;;;;;;;5050737;28;20517;-70
2023/08/03 05:15:03;;;;;;;11.77;5.10;;;;;;;;;;5052389;28;20029;-70
2023/08/03 05:17:28;;;;;;;7.05;5.53;;;;;;;;;;5063552;28;20380;-70
2023/08/03 05:19:53;;;;;;;2.60;2.38;;;;;;;;;;5053675;28;20021;-70
2023/08/03 05:22:19;;;;;;;3.63;1.93;;;;;;;;;;5062060;28;20040;-69
2023/08/03 05:24:44;;;;;;;3.63;1.63;;;;;;;;;;5066113;28;20790;-69
2023/08/03 05:27:09;;;;;;;3.47;2.10;;;;;;;;;;5064289;28;20025;-70
2023/08/03 05:29:35;;;;;;;3.58;2.10;;;;;;;;;;5062228;28;20020;-71
2023/08/03 05:32:00;;;;;;;6.88;1.98;;;;;;;;;;5063364;28;20036;-71
2023/08/03 05:34:25;;;;;;;1.37;1.27;;;;;;;;;;5071059;28;20871;-71
2023/08/03 05:36:51;;;;;;;4.40;1.13;;;;;;;;;;5069090;28;20462;-69
2023/08/03 05:39:17;;;;;;;1.50;1.40;;;;;;;;;;5067939;28;20151;-70
2023/08/03 05:41:42;;;;;;;13.73;1.40;;;;;;;;;;5067941;28;20539;-69
2023/08/03 05:44:10;;;;;;;1.83;1.73;;;;;;;;;;5070311;28;20490;-69
2023/08/03 05:46:35;;;;;;;2.47;2.28;;;;;;;;;;5069897;28;20510;-71
2023/08/03 05:49:00;;;;;;;2.05;1.85;;;;;;;;;;5066549;28;20016;-69
2023/08/03 05:51:26;;;;;;;2.93;2.17;;;;;;;;;;5068702;28;20418;-69
2023/08/03 05:53:52;;;;;;;4.85;2.53;;;;;;;;;;5071677;28;20429;-71
2023/08/03 05:56:19;;;;;;;2.70;2.40;;;;;;;;;;5066737;28;20032;-69
2023/08/03 05:58:44;;;;;;;4.47;3.63;;;;;;;;;;5070664;28;20027;-70
2023/08/03 06:01:10;;;;;;;9.80;4.20;;;;;;;;;;5069506;28;20656;-70
2023/08/03 06:03:37;;;;;;;6.28;2.67;;;;;;;;;;5063918;28;20070;-71
2023/08/03 06:06:03;;;;;;;4.47;4.03;;;;;;;;;;5057594;28;20350;-71
2023/08/03 06:08:29;;;;;;;3.22;2.92;;;;;;;;;;5070041;28;20028;-70
2023/08/03 06:10:55;;;;;;;5.50;2.90;;;;;;;;;;5070224;28;20025;-69
2023/08/03 06:13:24;;;;;;;2.72;2.17;;;;;;;;;;5070930;28;20074;-70
2023/08/03 06:15:49;;;;;;;2.05;1.95;;;;;;;;;;5068660;28;20023;-71
2023/08/03 06:18:15;;;;;;;2.15;2.05;;;;;;;;;;5051286;28;20013;-69
2023/08/03 06:20:43;;;;;;;3.00;2.55;;;;;;;;;;5051069;28;20036;-69
2023/08/03 06:23:21;;;;;;;4.03;2.65;;;;;;;;;;5050277;28;20065;-69
2023/08/03 06:25:47;;;;;;;3.78;2.53;;;;;;;;;;5051884;28;20024;-70
2023/08/03 06:28:13;;;;;;;6.38;3.60;;;;;;;;;;5069183;28;20113;-70
2023/08/03 06:30:39;;;;;;;5.85;3.92;;;;;;;;;;5068687;28;20020;-71
2023/08/03 06:33:04;;;;;;;10.55;3.88;;;;;;;;;;5062161;28;20101;-70
2023/08/03 06:35:39;;;;;;;7.43;4.10;;;;;;;;;;5067252;28;20119;-71
2023/08/03 06:38:05;;;;;;;4.20;3.90;;;;;;;;;;5068677;28;21031;-71
2023/08/03 06:40:31;;;;;;;6.95;5.07;;;;;;;;;;5070288;28;20020;-71
2023/08/03 06:42:56;;;;;;;6.80;4.97;;;;;;;;;;5066801;28;20086;-70
2023/08/03 06:45:21;;;;;;;11.73;5.20;;;;;;;;;;5070075;28;20093;-70
2023/08/03 06:47:47;;;;;;;22.53;7.07;;;;;;;;;;5068696;28;20439;-68
2023/08/03 06:50:12;;;;;;;11.27;3.85;;;;;;;;;;5056955;28;20017;-68
2023/08/03 06:52:38;;;;;;;9.10;4.10;;;;;;;;;;5048891;28;20588;-68
2023/08/03 06:55:03;;;;;;;3.83;2.70;;;;;;;;;;5050212;28;20025;-68
2023/08/03 06:57:28;;;;;;;3.95;3.08;;;;;;;;;;5061320;28;20064;-70
2023/08/03 06:59:55;;;;;;;4.30;3.20;;;;;;;;;;5065772;28;20085;-69
2023/08/03 07:02:20;;;;;;;6.05;3.33;;;;;;;;;;5066051;28;20040;-69
2023/08/03 07:04:45;;;;;;;6.30;2.78;;;;;;;;;;5067032;28;20211;-69
2023/08/03 07:07:11;;;;;;;4.47;2.50;;;;;;;;;;5067829;28;20086;-69
2023/08/03 07:09:36;;;;;;;4.33;2.30;;;;;;;;;;5070106;28;20047;-69
2023/08/03 07:12:01;;;;;;;4.10;2.20;;;;;;;;;;5066918;28;20038;-70
2023/08/03 07:14:26;;;;;;;3.53;3.23;;;;;;;;;;5069251;28;20375;-70
2023/08/03 07:16:51;;;;;;;7.50;2.80;;;;;;;;;;5068324;28;20048;-70
2023/08/03 07:19:18;;;;;;;4.72;2.70;;;;;;;;;;5068731;28;20052;-70
2023/08/03 07:21:43;;;;;;;10.80;3.90;;;;;;;;;;5067712;28;20036;-70
2023/08/03 07:24:09;;;;;;;9.57;4.68;;;;;;;;;;5069639;28;20348;-70
2023/08/03 07:26:34;;;;;;;7.90;4.22;;;;;;;;;;5067398;28;20124;-70
2023/08/03 07:28:59;;;;;;;8.10;3.67;;;;;;;;;;5069902;28;20016;-70
2023/08/03 07:31:26;;;;;;;7.27;4.07;;;;;;;;;;5067774;28;20039;-69
2023/08/03 07:33:51;;;;;;;10.63;2.90;;;;;;;;;;5068198;28;20044;-70
2023/08/03 07:36:19;;;;;;;7.80;4.63;;;;;;;;;;5068049;28;20071;-70
2023/08/03 07:38:44;;;;;;;10.60;2.95;;;;;;;;;;5070005;28;20021;-69
2023/08/03 07:41:09;;;;;;;7.10;2.80;;;;;;;;;;5066779;28;20032;-69
2023/08/03 07:43:34;;;;;;;4.90;3.53;;;;;;;;;;5069635;28;20087;-69
2023/08/03 07:46:02;;;;;;;7.70;3.03;;;;;;;;;;5070404;28;20020;-69
2023/08/03 07:48:27;;;;;;;7.60;4.57;;;;;;;;;;5072333;28;20036;-70
2023/08/03 07:50:53;;;;;;;6.47;2.30;;;;;;;;;;5072162;28;20438;-70
2023/08/03 07:53:18;;;;;;;6.77;2.97;;;;;;;;;;5073522;28;20013;-70
2023/08/03 07:55:43;;;;;;;5.43;2.70;;;;;;;;;;5069747;28;20012;-70
2023/08/03 07:58:08;;;;;;;4.82;2.72;;;;;;;;;;5073040;28;20088;-68
2023/08/03 08:00:33;;;;;;;21.60;6.10;;;;;;;;;;5073664;28;20056;-68
2023/08/03 08:02:58;;;;;;;7.05;2.50;;;;;;;;;;5070818;28;20579;-69
2023/08/03 08:05:24;;;;;;;4.60;3.10;;;;;;;;;;5071441;28;20021;-69
2023/08/03 08:07:49;;;;;;;9.20;3.75;;;;;;;;;;5071892;28;20055;-69
2023/08/03 08:10:14;;;;;;;9.00;4.77;;;;;;;;;;5071972;28;20071;-69
2023/08/03 08:12:39;;;;;;;10.05;4.18;;;;;;;;;;5071360;28;20039;-69
2023/08/03 08:15:05;;;;;;;7.20;3.73;;;;;;;;;;5073010;28;20392;-68
2023/08/03 08:17:30;;;;;;;9.68;3.40;;;;;;;;;;5070638;28;20463;-69
2023/08/03 08:19:56;;;;;;;8.80;4.33;;;;;;;;;;5071136;28;20536;-69
2023/08/03 08:22:21;;;;;;;9.05;4.90;;;;;;;;;;5063076;28;20529;-71
2023/08/03 08:24:47;;;;;;;5.50;2.65;;;;;;;;;;5062903;28;20456;-69
2023/08/03 08:27:12;;;;;;;6.20;3.47;;;;;;;;;;5056901;28;20422;-68
2023/08/03 08:29:37;;;;;;;6.57;3.17;;;;;;;;;;5052991;28;20029;-69
2023/08/03 08:32:02;;;;;;;7.53;2.60;;;;;;;;;;5060970;28;20501;-68
2023/08/03 08:34:27;;;;;;;9.82;3.60;;;;;;;;;;5066895;28;20588;-68
2023/08/03 08:36:55;;;;;;;3.70;2.20;;;;;;;;;;5070968;28;20416;-68
2023/08/03 08:39:20;;;;;;;5.70;2.60;;;;;;;;;;5071649;28;20048;-69
2023/08/03 08:41:45;;;;;;;8.10;1.70;;;;;;;;;;5067904;28;20925;-68
2023/08/03 08:44:14;;;;;;;4.60;1.90;;;;;;;;;;5072138;28;20016;-69
2023/08/03 08:46:43;;;;;;;4.88;2.92;;;;;;;;;;5071424;28;20044;-69
2023/08/03 08:49:08;;;;;;;4.45;1.60;;;;;;;;;;5071676;28;20375;-69
2023/08/03 08:51:33;;;;;;;3.37;1.93;;;;;;;;;;5071284;28;20044;-68
2023/08/03 08:53:58;;;;;;;9.93;3.27;;;;;;;;;;5072430;28;20439;-68
2023/08/03 08:56:23;;;;;;;7.13;2.92;;;;;;;;;;5070127;28;20466;-70
2023/08/03 08:58:49;;;;;;;3.37;2.17;;;;;;;;;;5072812;28;20664;-69
2023/08/03 09:01:15;;;;;;;6.63;2.72;;;;;;;;;;5070180;28;20051;-69
2023/08/03 09:03:47;;;;;;;8.05;3.22;;;;;;;;;;5056546;28;20566;-69
2023/08/03 09:06:13;;;;;;;4.47;1.98;;;;;;;;;;5068020;28;20462;-69
2023/08/03 09:08:52;;;;;;;5.78;2.17;;;;;;;;;;5071651;28;20096;-69
2023/08/03 09:11:17;;;;;;;6.30;2.20;;;;;;;;;;5070129;28;20037;-66
2023/08/03 09:13:45;;;;;;;6.50;2.03;;;;;;;;;;5070821;28;20024;-69
2023/08/03 09:16:21;;;;;;;7.97;2.95;;;;;;;;;;5070616;28;20036;-69
2023/08/03 09:18:46;;;;;;;4.03;1.88;;;;;;;;;;5071373;28;20032;-69
2023/08/03 09:21:12;;;;;;;5.00;1.53;;;;;;;;;;5070489;28;20040;-69
2023/08/03 09:23:38;;;;;;;2.13;2.00;;;;;;;;;;5070056;28;20025;-69
2023/08/03 09:26:03;;;;;;;1.80;1.70;;;;;;;;;;5050149;28;20472;-70
2023/08/03 09:28:38;;;;;;;4.85;1.52;;;;;;;;;;5051389;28;21027;-69
2023/08/03 09:31:04;;;;;;;6.05;2.08;;;;;;;;;;5050555;28;20361;-69
2023/08/03 09:33:30;;;;;;;3.85;2.17;;;;;;;;;;5051469;28;20482;-69
2023/08/03 09:36:21;;;;;;;2.25;2.05;;;;;;;;;;5050325;28;20120;-70
2023/08/03 09:38:46;;;;;;;4.22;1.52;;;;;;;;;;5053828;28;20037;-69
2023/08/03 09:41:12;;;;;;;4.23;1.90;;;;;;;;;;5058205;28;20120;-69
2023/08/03 09:43:39;;;;;;;6.38;1.23;;;;;;;;;;5071869;28;20443;-69
2023/08/03 09:46:05;;;;;;;5.20;2.63;;;;;;;;;;5069969;28;20512;-69
2023/08/03 09:48:30;;;;;;;3.90;1.23;;;;;;;;;;5055891;28;20031;-70
2023/08/03 09:50:57;;;;;;;3.17;1.40;;;;;;;;;;5049181;28;20158;-68
2023/08/03 09:53:29;;;;;;;1.73;1.20;;;;;;;;;;5071019;28;20012;-69
2023/08/03 09:56:00;;;;;;;0.93;0.93;;;;;;;;;;5069593;28;20021;-68
2023/08/03 09:58:37;;;;;;;2.45;1.77;;;;;;;;;;5071037;28;20039;-68
2023/08/03 10:01:03;;;;;;;1.88;1.27;;;;;;;;;;5032075;28;20029;-68
2023/08/03 10:03:29;;;;;;;1.15;0.90;;;;;;;;;;5068437;28;20044;-68
2023/08/03 10:06:13;;;;;;;1.13;1.10;;;;;;;;;;5070054;28;20045;-69
2023/08/03 10:08:55;;;;;;;0.82;0.82;;;;;;;;;;5070659;28;20471;-68
2023/08/03 10:11:20;;;;;;;1.30;1.20;;;;;;;;;;5069442;28;20032;-69
2023/08/03 10:13:46;;;;;;;0.85;0.85;;;;;;;;;;5071364;28;20173;-68
2023/08/03 10:16:15;;;;;;;1.73;1.23;;;;;;;;;;5068493;28;20508;-68
2023/08/03 10:18:41;;;;;;;1.58;1.10;;;;;;;;;;5070732;28;20740;-69
2023/08/03 10:21:06;;;;;;;1.48;1.25;;;;;;;;;;5068517;28;20637;-69
2023/08/03 10:23:32;;;;;;;5.07;1.48;;;;;;;;;;5070294;28;20059;-69
2023/08/03 10:25:58;;;;;;;4.63;1.58;;;;;;;;;;5069079;28;20475;-69
2023/08/03 10:28:27;;;;;;;5.68;1.40;;;;;;;;;;5063659;28;20187;-69
2023/08/03 10:31:03;;;;;;;1.75;1.38;;;;;;;;;;5063093;28;20049;-69
2023/08/03 10:33:47;;;;;;;2.33;2.15;;;;;;;;;;5069186;28;20024;-69
2023/08/03 10:36:27;;;;;;;2.58;1.55;;;;;;;;;;5069116;28;20093;-69
2023/08/03 10:39:00;;;;;;;2.65;2.38;;;;;;;;;;5069052;28;20025;-70
2023/08/03 10:41:27;;;;;;;4.82;1.10;;;;;;;;;;5067981;28;20128;-68
2023/08/03 10:44:09;;;;;;;3.25;1.90;;;;;;;;;;5070196;28;20017;-68
2023/08/03 10:46:34;;;;;;;3.47;1.42;;;;;;;;;;5068822;28;20037;-69
2023/08/03 10:48:59;;;;;;;3.72;1.88;;;;;;;;;;5068892;28;20020;-69
2023/08/03 10:51:24;;;;;;;3.15;1.83;;;;;;;;;;5055955;28;20095;-69
2023/08/03 10:53:49;;;;;;;3.63;2.22;;;;;;;;;;5057488;28;20044;-69
2023/08/03 10:56:15;;;;;;;2.67;2.00;;;;;;;;;;5068987;28;20086;-70
2023/08/03 10:58:50;;;;;;;3.93;1.60;;;;;;;;;;5069851;28;20027;-69
2023/08/03 11:01:23;;;;;;;2.88;1.30;;;;;;;;;;5067539;28;20036;-68
2023/08/03 11:03:48;;;;;;;1.63;1.30;;;;;;;;;;5070394;28;20077;-68
2023/08/03 11:06:13;;;;;;;3.40;1.40;;;;;;;;;;5068010;28;20487;-68
2023/08/03 11:08:38;;;;;;;1.98;1.10;;;;;;;;;;5069933;28;20028;-68
2023/08/03 11:11:04;;;;;;;3.37;2.10;;;;;;;;;;5068054;28;20097;-69
2023/08/03 11:13:29;;;;;;;5.20;2.30;;;;;;;;;;5070054;28;20431;-69
2023/08/03 11:15:54;;;;;;;4.22;1.48;;;;;;;;;;5068595;28;20476;-68
2023/08/03 11:18:19;;;;;;;1.70;1.60;;;;;;;;;;5069912;28;20031;-69
2023/08/03 11:20:45;;;;;;;5.43;1.80;;;;;;;;;;5067478;28;20039;-69
2023/08/03 11:23:13;;;;;;;2.43;1.63;;;;;;;;;;5069571;28;20459;-68
2023/08/03 11:25:38;;;;;;;;;;;;;;;;;;5069665;28;20431;-69
2023/08/03 11:28:03;;;;;;;3.17;1.75;;;;;;;;;;5065254;28;19915;-68
2023/08/03 11:30:28;;;;;;;1.90;1.38;;;;;;;;;;5068982;28;20028;-70
2023/08/03 11:32:58;;;;;;;15.57;2.75;;;;;;;;;;5068743;28;20060;-69
2023/08/03 11:35:23;;;;;;;7.40;2.75;;;;;;;;;;5069793;28;20017;-69
2023/08/03 11:37:48;;;;;;;3.07;1.60;;;;;;;;;;5067445;28;20036;-69
2023/08/03 11:40:14;;;;;;;4.35;2.10;;;;;;;;;;5068626;28;20020;-69
2023/08/03 11:42:39;;;;;;;2.50;1.48;;;;;;;;;;5068679;28;20491;-69
2023/08/03 11:45:05;;;;;;;5.85;2.17;;;;;;;;;;5070152;28;20017;-69
2023/08/03 11:47:47;;;;;;;2.88;0.95;;;;;;;;;;5068203;28;20044;-69
2023/08/03 11:50:13;;;;;;;6.63;1.50;;;;;;;;;;5068375;28;20023;-70
2023/08/03 11:52:38;;;;;;;2.03;1.10;;;;;;;;;;5068104;28;20487;-70
2023/08/03 11:55:04;;;;;;;1.93;1.57;;;;;;;;;;5069990;28;20024;-70
2023/08/03 12:00:14;;;;;;;2.78;1.15;;;;;;;;;;5069054;28;20419;-70
2023/08/03 12:02:40;;;;;;;3.10;1.27;;;;;;;;;;5067876;28;20031;-70
2023/08/03 12:05:06;;;;;;;7.95;2.13;;;;;;;;;;5069750;28;20028;-70
2023/08/03 12:07:31;;;;;;;3.92;2.05;;;;;;;;;;5067777;28;20031;-71
2023/08/03 12:09:56;;;;;;;6.83;1.67;;;;;;;;;;5066746;28;20025;-74
2023/08/03 12:12:21;;;;;;;2.85;1.77;;;;;;;;;;5048149;28;20637;-72
2023/08/03 12:14:46;;;;;;;4.30;1.87;;;;;;;;;;5062521;28;20024;-72
2023/08/03 12:17:12;;;;;;;3.07;1.10;;;;;;;;;;5067976;28;20032;-72
2023/08/03 12:19:38;;;;;;;5.55;2.08;;;;;;;;;;5068736;28;20037;-70
2023/08/03 12:22:03;;;;;;;5.35;1.70;;;;;;;;;;5068044;28;20525;-72
2023/08/03 12:24:29;;;;;;;3.38;1.95;;;;;;;;;;5068860;28;20023;-71
2023/08/03 12:26:54;;;;;;;2.88;1.55;;;;;;;;;;5065461;28;20025;-75
2023/08/03 12:29:19;;;;;;;4.20;1.48;;;;;;;;;;5068255;28;20479;-75
2023/08/03 12:31:44;;;;;;;5.67;1.70;;;;;;;;;;5070190;28;20440;-74
2023/08/03 12:34:09;;;;;;;3.67;0.93;;;;;;;;;;5072323;28;20063;-72
2023/08/03 12:36:35;;;;;;;5.90;1.80;;;;;;;;;;5071312;28;20392;-70
2023/08/03 12:39:00;;;;;;;2.63;1.27;;;;;;;;;;5072764;28;20044;-70
2023/08/03 12:41:25;;;;;;;6.63;1.73;;;;;;;;;;5071344;28;20458;-71
2023/08/03 12:43:50;;;;;;;6.13;1.43;;;;;;;;;;5073501;28;20095;-69
2023/08/03 12:46:16;;;;;;;3.93;2.23;;;;;;;;;;5070996;28;20102;-70
2023/08/03 12:48:41;;;;;;;12.05;4.72;;;;;;;;;;5072840;28;20017;-70
2023/08/03 12:51:07;;;;;;;4.13;1.92;;;;;;;;;;5056044;28;20158;-70
2023/08/03 12:53:32;;;;;;;9.32;2.88;;;;;;;;;;5051341;28;20032;-69
2023/08/03 12:55:57;;;;;;;3.40;2.30;;;;;;;;;;5053303;28;20471;-70
2023/08/03 12:58:22;;;;;;;9.67;3.07;;;;;;;;;;5072600;28;20081;-66
2023/08/03 13:00:47;;;;;;;4.77;2.50;;;;;;;;;;5069668;28;20550;-69
2023/08/03 13:03:13;;;;;;;15.23;3.80;;;;;;;;;;5072889;28;20325;-69
2023/08/03 13:05:38;;;;;;;8.60;2.75;;;;;;;;;;5072974;28;20016;-68
2023/08/03 13:08:03;;;;;;;9.27;2.97;;;;;;;;;;5070911;28;20036;-68
2023/08/03 13:10:28;;;;;;;10.70;2.60;;;;;;;;;;5072090;28;20028;-68
2023/08/03 13:12:53;;;;;;;6.00;3.17;;;;;;;;;;5071044;28;20040;-68
2023/08/03 13:15:18;;;;;;;5.20;2.20;;;;;;;;;;5071821;28;20020;-68
2023/08/03 13:17:44;;;;;;;6.17;3.37;;;;;;;;;;5070726;28;20648;-68
2023/08/03 13:20:09;;;;;;;7.63;2.77;;;;;;;;;;5071788;28;20021;-69
2023/08/03 13:22:34;;;;;;;5.65;2.03;;;;;;;;;;5069805;28;20032;-68
2023/08/03 13:25:00;;;;;;;4.57;2.43;;;;;;;;;;5071908;28;20601;-68
2023/08/03 13:27:27;;;;;;;6.70;2.00;;;;;;;;;;5070485;28;20450;-68
2023/08/03 13:29:52;;;;;;;2.25;1.73;;;;;;;;;;5071760;28;20357;-68
2023/08/03 13:32:17;;;;;;;6.05;2.47;;;;;;;;;;5069958;28;20120;-68
2023/08/03 13:34:42;;;;;;;6.93;2.50;;;;;;;;;;5072169;28;20020;-68
2023/08/03 13:37:08;;;;;;;3.07;1.90;;;;;;;;;;5069068;28;20045;-69
2023/08/03 13:39:33;;;;;;;6.85;3.15;;;;;;;;;;5071617;28;20021;-69
2023/08/03 13:41:58;;;;;;;6.90;3.30;;;;;;;;;;5069621;28;20043;-68
2023/08/03 13:44:23;;;;;;;7.20;3.63;;;;;;;;;;5071091;28;20050;-68
2023/08/03 13:46:49;;;;;;;31.00;4.60;;;;;;;;;;5070831;28;20037;-69
2023/08/03 13:49:14;;;;;;;7.80;2.73;;;;;;;;;;5040050;28;20358;-69
2023/08/03 13:51:39;;;;;;;11.07;4.03;;;;;;;;;;5037932;28;20036;-68
2023/08/03 13:54:04;;;;;;;3.35;1.90;;;;;;;;;;5052172;28;20423;-68
2023/08/03 13:56:29;;;;;;;4.75;1.73;;;;;;;;;;5049958;28;20702;-67
2023/08/03 13:58:55;;;;;;;5.25;2.65;;;;;;;;;;5051822;28;20023;-68
2023/08/03 14:01:20;;;;;;;10.33;2.37;;;;;;;;;;5069880;28;20047;-68
2023/08/03 14:03:45;;;;;;;4.78;1.60;;;;;;;;;;5071496;28;20024;-68
2023/08/03 14:06:10;;;;;;;1.63;1.50;;;;;;;;;;5069324;28;20106;-67
2023/08/03 14:08:36;;;;;;;1.30;1.20;;;;;;;;;;5070738;28;20114;-68
2023/08/03 14:11:01;;;;;;;5.63;1.40;;;;;;;;;;5068902;28;20008;-70
2023/08/03 14:13:26;;;;;;;0.80;0.80;;;;;;;;;;5069427;28;20443;-69
2023/08/03 14:15:51;;;;;;;2.88;1.35;;;;;;;;;;5066358;28;20013;-68
2023/08/03 14:18:16;;;;;;;3.30;2.33;;;;;;;;;;5070697;28;20486;-68
2023/08/03 14:20:41;;;;;;;2.65;1.08;;;;;;;;;;5070699;28;20021;-69
2023/08/03 14:23:06;;;;;;;2.60;0.90;;;;;;;;;;5064981;28;20029;-68
2023/08/03 14:25:32;;;;;;;1.97;1.87;;;;;;;;;;5051520;28;20082;-68
2023/08/03 14:27:57;;;;;;;2.75;1.38;;;;;;;;;;5067328;28;20024;-68
2023/08/03 14:30:22;;;;;;;4.13;2.00;;;;;;;;;;5070670;28;20036;-68
2023/08/03 14:32:47;;;;;;;3.13;1.30;;;;;;;;;;5069297;28;20451;-68
2023/08/03 14:35:13;;;;;;;3.03;1.43;;;;;;;;;;5070544;28;20155;-68
2023/08/03 14:37:38;;;;;;;5.30;1.30;;;;;;;;;;5069142;28;20438;-67